sensor_id;sensor_type;location;lat;lon;timestamp;P1;durP1;ratioP1;P2;durP2;ratioP2
5559;SDS011;2803;47.916;8.074;2022-09-14T00:00:09;5.90;;;2.23;;
5559;SDS011;2803;47.916;8.074;2022-09-14T00:02:36;5.63;;;2.50;;
5559;SDS011;2803;47.916;8.074;2022-09-14T00:05:02;9.63;;;2.50;;
5559;SDS011;2803;47.916;8.074;2022-09-14T00:07:29;19.93;;;2.63;;
5559;SDS011;2803;47.916;8.074;2022-09-14T00:09:57;4.87;;;2.30;;
5559;SDS011;2803;47.916;8.074;2022-09-14T00:12:24;11.43;;;2.37;;
5559;SDS011;2803;47.916;8.074;2022-09-14T00:14:51;6.20;;;2.60;;
5559;SDS011;2803;47.916;8.074;2022-09-14T00:17:17;9.37;;;2.83;;
5559;SDS011;2803;47.916;8.074;2022-09-14T00:19:44;6.20;;;2.20;;
5559;SDS011;2803;47.916;8.074;2022-09-14T00:22:11;8.70;;;2.93;;
5559;SDS011;2803;47.916;8.074;2022-09-14T00:24:37;10.17;;;2.60;;
5559;SDS011;2803;47.916;8.074;2022-09-14T00:27:05;6.80;;;2.93;;
5559;SDS011;2803;47.916;8.074;2022-09-14T00:29:32;9.97;;;4.87;;
5559;SDS011;2803;47.916;8.074;2022-09-14T00:31:59;12.00;;;3.80;;
5559;SDS011;2803;47.916;8.074;2022-09-14T00:34:26;8.03;;;3.53;;
5559;SDS011;2803;47.916;8.074;2022-09-14T00:36:52;9.90;;;3.00;;
5559;SDS011;2803;47.916;8.074;2022-09-14T00:39:20;7.03;;;3.13;;
5559;SDS011;2803;47.916;8.074;2022-09-14T00:41:49;14.73;;;3.40;;
5559;SDS011;2803;47.916;8.074;2022-09-14T00:47:15;13.60;;;2.90;;
5559;SDS011;2803;47.916;8.074;2022-09-14T00:49:42;11.70;;;3.00;;
5559;SDS011;2803;47.916;8.074;2022-09-14T00:52:10;8.57;;;2.93;;
5559;SDS011;2803;47.916;8.074;2022-09-14T00:54:40;11.27;;;3.03;;
5559;SDS011;2803;47.916;8.074;2022-09-14T00:57:09;11.53;;;2.93;;
5559;SDS011;2803;47.916;8.074;2022-09-14T00:59:37;15.17;;;3.67;;
5559;SDS011;2803;47.916;8.074;2022-09-14T01:02:06;12.10;;;3.50;;
5559;SDS011;2803;47.916;8.074;2022-09-14T01:04:35;7.37;;;3.07;;
5559;SDS011;2803;47.916;8.074;2022-09-14T01:07:05;20.43;;;3.70;;
5559;SDS011;2803;47.916;8.074;2022-09-14T01:09:39;8.10;;;2.93;;
5559;SDS011;2803;47.916;8.074;2022-09-14T01:12:17;30.17;;;3.47;;
5559;SDS011;2803;47.916;8.074;2022-09-14T01:14:52;9.53;;;3.47;;
5559;SDS011;2803;47.916;8.074;2022-09-14T01:17:26;9.13;;;3.00;;
5559;SDS011;2803;47.916;8.074;2022-09-14T01:20:05;7.77;;;2.80;;
5559;SDS011;2803;47.916;8.074;2022-09-14T01:22:41;13.67;;;3.17;;
5559;SDS011;2803;47.916;8.074;2022-09-14T01:25:27;7.30;;;2.93;;
5559;SDS011;2803;47.916;8.074;2022-09-14T01:28:06;10.07;;;3.40;;
5559;SDS011;2803;47.916;8.074;2022-09-14T01:30:36;11.60;;;3.43;;
5559;SDS011;2803;47.916;8.074;2022-09-14T01:33:08;10.17;;;3.37;;
5559;SDS011;2803;47.916;8.074;2022-09-14T01:35:41;6.93;;;3.00;;
5559;SDS011;2803;47.916;8.074;2022-09-14T01:38:14;8.17;;;2.53;;
5559;SDS011;2803;47.916;8.074;2022-09-14T01:40:46;9.30;;;3.10;;
5559;SDS011;2803;47.916;8.074;2022-09-14T01:43:17;8.30;;;3.50;;
5559;SDS011;2803;47.916;8.074;2022-09-14T01:45:48;8.37;;;2.83;;
5559;SDS011;2803;47.916;8.074;2022-09-14T01:48:20;27.23;;;3.20;;
5559;SDS011;2803;47.916;8.074;2022-09-14T01:50:50;5.67;;;3.07;;
5559;SDS011;2803;47.916;8.074;2022-09-14T01:53:21;8.90;;;3.17;;
5559;SDS011;2803;47.916;8.074;2022-09-14T01:55:53;8.30;;;2.80;;
5559;SDS011;2803;47.916;8.074;2022-09-14T01:58:25;11.23;;;3.50;;
5559;SDS011;2803;47.916;8.074;2022-09-14T02:00:55;8.83;;;3.80;;
5559;SDS011;2803;47.916;8.074;2022-09-14T02:03:24;9.97;;;3.33;;
5559;SDS011;2803;47.916;8.074;2022-09-14T02:05:55;10.17;;;3.97;;
5559;SDS011;2803;47.916;8.074;2022-09-14T02:08:26;16.13;;;3.60;;
5559;SDS011;2803;47.916;8.074;2022-09-14T02:10:54;9.77;;;3.80;;
5559;SDS011;2803;47.916;8.074;2022-09-14T02:13:22;10.37;;;3.83;;
5559;SDS011;2803;47.916;8.074;2022-09-14T02:15:50;12.30;;;3.17;;
5559;SDS011;2803;47.916;8.074;2022-09-14T02:18:17;11.97;;;3.90;;
5559;SDS011;2803;47.916;8.074;2022-09-14T02:20:44;16.37;;;3.90;;
5559;SDS011;2803;47.916;8.074;2022-09-14T02:23:14;10.80;;;3.50;;
5559;SDS011;2803;47.916;8.074;2022-09-14T02:25:42;12.37;;;3.83;;
5559;SDS011;2803;47.916;8.074;2022-09-14T02:28:09;8.97;;;4.50;;
5559;SDS011;2803;47.916;8.074;2022-09-14T02:30:37;7.60;;;3.40;;
5559;SDS011;2803;47.916;8.074;2022-09-14T02:33:15;6.00;;;3.00;;
5559;SDS011;2803;47.916;8.074;2022-09-14T02:35:51;9.57;;;3.87;;
5559;SDS011;2803;47.916;8.074;2022-09-14T02:38:21;10.10;;;3.60;;
5559;SDS011;2803;47.916;8.074;2022-09-14T02:40:55;6.90;;;3.10;;
5559;SDS011;2803;47.916;8.074;2022-09-14T02:43:27;10.73;;;3.10;;
5559;SDS011;2803;47.916;8.074;2022-09-14T02:46:04;4.70;;;3.50;;
5559;SDS011;2803;47.916;8.074;2022-09-14T02:48:45;7.93;;;3.17;;
5559;SDS011;2803;47.916;8.074;2022-09-14T02:51:19;12.03;;;3.53;;
5559;SDS011;2803;47.916;8.074;2022-09-14T02:53:52;7.20;;;3.50;;
5559;SDS011;2803;47.916;8.074;2022-09-14T02:56:24;10.47;;;3.67;;
5559;SDS011;2803;47.916;8.074;2022-09-14T02:58:53;6.93;;;3.80;;
5559;SDS011;2803;47.916;8.074;2022-09-14T03:01:20;5.80;;;3.40;;
5559;SDS011;2803;47.916;8.074;2022-09-14T03:03:49;10.93;;;3.90;;
5559;SDS011;2803;47.916;8.074;2022-09-14T03:06:16;8.73;;;3.20;;
5559;SDS011;2803;47.916;8.074;2022-09-14T03:08:43;7.17;;;3.60;;
5559;SDS011;2803;47.916;8.074;2022-09-14T03:11:10;6.23;;;3.10;;
5559;SDS011;2803;47.916;8.074;2022-09-14T03:13:37;6.10;;;3.17;;
5559;SDS011;2803;47.916;8.074;2022-09-14T03:16:04;10.63;;;4.23;;
5559;SDS011;2803;47.916;8.074;2022-09-14T03:18:32;12.17;;;3.20;;
5559;SDS011;2803;47.916;8.074;2022-09-14T03:21:03;8.67;;;3.83;;
5559;SDS011;2803;47.916;8.074;2022-09-14T03:23:34;9.43;;;4.30;;
5559;SDS011;2803;47.916;8.074;2022-09-14T03:26:04;13.07;;;3.90;;
5559;SDS011;2803;47.916;8.074;2022-09-14T03:28:32;12.77;;;3.63;;
5559;SDS011;2803;47.916;8.074;2022-09-14T03:30:59;11.73;;;4.53;;
5559;SDS011;2803;47.916;8.074;2022-09-14T03:33:26;14.67;;;4.00;;
5559;SDS011;2803;47.916;8.074;2022-09-14T03:35:52;11.07;;;4.73;;
5559;SDS011;2803;47.916;8.074;2022-09-14T03:38:20;11.30;;;4.47;;
5559;SDS011;2803;47.916;8.074;2022-09-14T03:40:48;9.30;;;4.93;;
5559;SDS011;2803;47.916;8.074;2022-09-14T03:43:15;8.77;;;4.50;;
5559;SDS011;2803;47.916;8.074;2022-09-14T03:45:41;10.63;;;5.17;;
5559;SDS011;2803;47.916;8.074;2022-09-14T03:48:09;9.90;;;5.57;;
5559;SDS011;2803;47.916;8.074;2022-09-14T03:50:39;11.17;;;5.63;;
5559;SDS011;2803;47.916;8.074;2022-09-14T03:53:06;12.10;;;6.13;;
5559;SDS011;2803;47.916;8.074;2022-09-14T03:55:34;17.90;;;4.63;;
5559;SDS011;2803;47.916;8.074;2022-09-14T03:58:01;9.73;;;4.83;;
5559;SDS011;2803;47.916;8.074;2022-09-14T04:00:27;13.30;;;4.97;;
5559;SDS011;2803;47.916;8.074;2022-09-14T04:02:54;12.93;;;4.73;;
5559;SDS011;2803;47.916;8.074;2022-09-14T04:05:21;10.17;;;5.20;;
5559;SDS011;2803;47.916;8.074;2022-09-14T04:07:47;12.23;;;4.77;;
5559;SDS011;2803;47.916;8.074;2022-09-14T04:10:14;10.40;;;4.90;;
5559;SDS011;2803;47.916;8.074;2022-09-14T04:12:42;10.90;;;4.93;;
5559;SDS011;2803;47.916;8.074;2022-09-14T04:15:08;10.33;;;5.33;;
5559;SDS011;2803;47.916;8.074;2022-09-14T04:17:35;15.87;;;4.03;;
5559;SDS011;2803;47.916;8.074;2022-09-14T04:20:02;9.73;;;4.13;;
5559;SDS011;2803;47.916;8.074;2022-09-14T04:22:29;8.40;;;3.60;;
5559;SDS011;2803;47.916;8.074;2022-09-14T04:24:56;13.63;;;4.87;;
5559;SDS011;2803;47.916;8.074;2022-09-14T04:27:22;13.50;;;5.13;;
5559;SDS011;2803;47.916;8.074;2022-09-14T04:29:50;13.63;;;4.20;;
5559;SDS011;2803;47.916;8.074;2022-09-14T04:32:17;13.80;;;4.23;;
5559;SDS011;2803;47.916;8.074;2022-09-14T04:34:43;7.83;;;3.50;;
5559;SDS011;2803;47.916;8.074;2022-09-14T04:37:10;9.70;;;3.70;;
5559;SDS011;2803;47.916;8.074;2022-09-14T04:39:36;15.43;;;4.97;;
5559;SDS011;2803;47.916;8.074;2022-09-14T04:42:03;8.50;;;4.33;;
5559;SDS011;2803;47.916;8.074;2022-09-14T04:44:30;7.43;;;3.67;;
5559;SDS011;2803;47.916;8.074;2022-09-14T04:46:58;8.83;;;4.03;;
5559;SDS011;2803;47.916;8.074;2022-09-14T04:49:25;8.30;;;3.07;;
5559;SDS011;2803;47.916;8.074;2022-09-14T04:51:51;6.17;;;3.60;;
5559;SDS011;2803;47.916;8.074;2022-09-14T04:54:18;6.57;;;3.23;;
5559;SDS011;2803;47.916;8.074;2022-09-14T04:56:44;5.60;;;3.10;;
5559;SDS011;2803;47.916;8.074;2022-09-14T04:59:11;7.47;;;3.30;;
5559;SDS011;2803;47.916;8.074;2022-09-14T05:01:40;6.80;;;2.93;;
5559;SDS011;2803;47.916;8.074;2022-09-14T05:04:09;5.60;;;2.90;;
5559;SDS011;2803;47.916;8.074;2022-09-14T05:06:37;11.43;;;3.40;;
5559;SDS011;2803;47.916;8.074;2022-09-14T05:09:05;4.90;;;3.30;;
5559;SDS011;2803;47.916;8.074;2022-09-14T05:11:34;10.00;;;3.57;;
5559;SDS011;2803;47.916;8.074;2022-09-14T05:14:01;6.77;;;3.60;;
5559;SDS011;2803;47.916;8.074;2022-09-14T05:16:29;5.83;;;3.07;;
5559;SDS011;2803;47.916;8.074;2022-09-14T05:18:57;14.03;;;5.50;;
5559;SDS011;2803;47.916;8.074;2022-09-14T05:21:27;11.13;;;3.67;;
5559;SDS011;2803;47.916;8.074;2022-09-14T05:23:55;9.80;;;3.70;;
5559;SDS011;2803;47.916;8.074;2022-09-14T05:26:23;7.70;;;3.50;;
5559;SDS011;2803;47.916;8.074;2022-09-14T05:28:51;6.30;;;3.60;;
5559;SDS011;2803;47.916;8.074;2022-09-14T05:31:20;8.83;;;3.93;;
5559;SDS011;2803;47.916;8.074;2022-09-14T05:33:48;19.07;;;5.43;;
5559;SDS011;2803;47.916;8.074;2022-09-14T05:36:15;10.83;;;3.80;;
5559;SDS011;2803;47.916;8.074;2022-09-14T05:38:43;11.53;;;4.00;;
5559;SDS011;2803;47.916;8.074;2022-09-14T05:41:11;11.10;;;3.67;;
5559;SDS011;2803;47.916;8.074;2022-09-14T05:43:38;14.30;;;3.60;;
5559;SDS011;2803;47.916;8.074;2022-09-14T05:46:06;12.50;;;3.80;;
5559;SDS011;2803;47.916;8.074;2022-09-14T05:48:35;6.27;;;3.13;;
5559;SDS011;2803;47.916;8.074;2022-09-14T05:51:03;10.33;;;3.90;;
5559;SDS011;2803;47.916;8.074;2022-09-14T05:53:32;12.43;;;3.87;;
5559;SDS011;2803;47.916;8.074;2022-09-14T05:56:01;10.63;;;3.80;;
5559;SDS011;2803;47.916;8.074;2022-09-14T05:58:29;6.40;;;3.67;;
5559;SDS011;2803;47.916;8.074;2022-09-14T06:00:56;8.63;;;4.33;;
5559;SDS011;2803;47.916;8.074;2022-09-14T06:03:23;17.70;;;5.30;;
5559;SDS011;2803;47.916;8.074;2022-09-14T06:05:49;26.23;;;9.70;;
5559;SDS011;2803;47.916;8.074;2022-09-14T06:08:18;28.23;;;11.70;;
5559;SDS011;2803;47.916;8.074;2022-09-14T06:10:46;32.00;;;15.10;;
5559;SDS011;2803;47.916;8.074;2022-09-14T06:13:14;43.10;;;19.00;;
5559;SDS011;2803;47.916;8.074;2022-09-14T06:15:41;24.13;;;11.63;;
5559;SDS011;2803;47.916;8.074;2022-09-14T06:18:07;24.40;;;10.20;;
5559;SDS011;2803;47.916;8.074;2022-09-14T06:20:34;25.93;;;9.70;;
5559;SDS011;2803;47.916;8.074;2022-09-14T06:23:00;35.53;;;11.77;;
5559;SDS011;2803;47.916;8.074;2022-09-14T06:25:27;29.73;;;13.50;;
5559;SDS011;2803;47.916;8.074;2022-09-14T06:27:55;24.33;;;13.23;;
5559;SDS011;2803;47.916;8.074;2022-09-14T06:30:23;30.87;;;13.50;;
5559;SDS011;2803;47.916;8.074;2022-09-14T06:32:50;15.70;;;6.67;;
5559;SDS011;2803;47.916;8.074;2022-09-14T06:35:17;12.70;;;6.60;;
5559;SDS011;2803;47.916;8.074;2022-09-14T06:37:43;7.87;;;5.17;;
5559;SDS011;2803;47.916;8.074;2022-09-14T06:40:10;14.30;;;6.80;;
5559;SDS011;2803;47.916;8.074;2022-09-14T06:42:36;12.77;;;6.63;;
5559;SDS011;2803;47.916;8.074;2022-09-14T06:45:03;8.90;;;5.57;;
5559;SDS011;2803;47.916;8.074;2022-09-14T06:47:32;16.50;;;6.20;;
5559;SDS011;2803;47.916;8.074;2022-09-14T06:49:59;12.83;;;8.03;;
5559;SDS011;2803;47.916;8.074;2022-09-14T06:52:25;18.60;;;7.37;;
5559;SDS011;2803;47.916;8.074;2022-09-14T06:54:52;9.13;;;5.23;;
5559;SDS011;2803;47.916;8.074;2022-09-14T06:57:18;9.83;;;3.93;;
5559;SDS011;2803;47.916;8.074;2022-09-14T06:59:45;12.13;;;5.03;;
5559;SDS011;2803;47.916;8.074;2022-09-14T07:02:12;14.63;;;4.67;;
5559;SDS011;2803;47.916;8.074;2022-09-14T07:04:40;5.23;;;3.50;;
5559;SDS011;2803;47.916;8.074;2022-09-14T07:07:07;9.07;;;4.20;;
5559;SDS011;2803;47.916;8.074;2022-09-14T07:09:34;11.83;;;3.53;;
5559;SDS011;2803;47.916;8.074;2022-09-14T07:12:01;8.83;;;3.87;;
5559;SDS011;2803;47.916;8.074;2022-09-14T07:14:28;9.23;;;4.13;;
5559;SDS011;2803;47.916;8.074;2022-09-14T07:16:55;11.10;;;3.97;;
5559;SDS011;2803;47.916;8.074;2022-09-14T07:19:21;6.33;;;3.13;;
5559;SDS011;2803;47.916;8.074;2022-09-14T07:21:49;8.10;;;3.67;;
5559;SDS011;2803;47.916;8.074;2022-09-14T07:24:18;6.63;;;3.90;;
5559;SDS011;2803;47.916;8.074;2022-09-14T07:26:45;6.23;;;3.50;;
5559;SDS011;2803;47.916;8.074;2022-09-14T07:29:13;11.00;;;3.63;;
5559;SDS011;2803;47.916;8.074;2022-09-14T07:31:42;10.20;;;3.93;;
5559;SDS011;2803;47.916;8.074;2022-09-14T07:34:09;6.47;;;3.60;;
5559;SDS011;2803;47.916;8.074;2022-09-14T07:36:37;16.37;;;3.90;;
5559;SDS011;2803;47.916;8.074;2022-09-14T07:39:06;11.70;;;3.40;;
5559;SDS011;2803;47.916;8.074;2022-09-14T07:41:34;6.50;;;3.57;;
5559;SDS011;2803;47.916;8.074;2022-09-14T07:44:02;7.90;;;3.70;;
5559;SDS011;2803;47.916;8.074;2022-09-14T07:46:32;4.63;;;3.23;;
5559;SDS011;2803;47.916;8.074;2022-09-14T07:49:03;17.30;;;3.83;;
5559;SDS011;2803;47.916;8.074;2022-09-14T07:51:30;6.83;;;3.10;;
5559;SDS011;2803;47.916;8.074;2022-09-14T07:53:58;11.07;;;3.20;;
5559;SDS011;2803;47.916;8.074;2022-09-14T07:56:27;5.67;;;3.00;;
5559;SDS011;2803;47.916;8.074;2022-09-14T07:58:54;8.60;;;2.70;;
5559;SDS011;2803;47.916;8.074;2022-09-14T08:01:22;5.90;;;2.90;;
5559;SDS011;2803;47.916;8.074;2022-09-14T08:03:49;7.73;;;3.30;;
5559;SDS011;2803;47.916;8.074;2022-09-14T08:06:17;8.50;;;3.50;;
5559;SDS011;2803;47.916;8.074;2022-09-14T08:08:47;8.10;;;3.63;;
5559;SDS011;2803;47.916;8.074;2022-09-14T08:11:16;11.63;;;3.00;;
5559;SDS011;2803;47.916;8.074;2022-09-14T08:13:47;10.40;;;3.57;;
5559;SDS011;2803;47.916;8.074;2022-09-14T08:16:15;13.73;;;4.37;;
5559;SDS011;2803;47.916;8.074;2022-09-14T08:18:43;6.10;;;3.33;;
5559;SDS011;2803;47.916;8.074;2022-09-14T08:21:10;13.30;;;3.43;;
5559;SDS011;2803;47.916;8.074;2022-09-14T08:23:38;11.03;;;3.83;;
5559;SDS011;2803;47.916;8.074;2022-09-14T08:26:08;7.13;;;3.47;;
5559;SDS011;2803;47.916;8.074;2022-09-14T08:28:36;22.73;;;4.20;;
5559;SDS011;2803;47.916;8.074;2022-09-14T08:31:05;12.77;;;7.10;;
5559;SDS011;2803;47.916;8.074;2022-09-14T08:33:33;23.13;;;8.47;;
5559;SDS011;2803;47.916;8.074;2022-09-14T08:36:01;18.90;;;9.10;;
5559;SDS011;2803;47.916;8.074;2022-09-14T08:38:29;15.97;;;7.47;;
5559;SDS011;2803;47.916;8.074;2022-09-14T08:40:55;11.63;;;6.13;;
5559;SDS011;2803;47.916;8.074;2022-09-14T08:43:25;17.40;;;5.23;;
5559;SDS011;2803;47.916;8.074;2022-09-14T08:45:56;13.73;;;3.50;;
5559;SDS011;2803;47.916;8.074;2022-09-14T08:48:29;8.80;;;4.23;;
5559;SDS011;2803;47.916;8.074;2022-09-14T08:50:59;12.00;;;4.07;;
5559;SDS011;2803;47.916;8.074;2022-09-14T08:53:28;9.17;;;3.60;;
5559;SDS011;2803;47.916;8.074;2022-09-14T08:55:56;11.80;;;3.90;;
5559;SDS011;2803;47.916;8.074;2022-09-14T08:58:29;8.93;;;3.80;;
5559;SDS011;2803;47.916;8.074;2022-09-14T09:01:16;12.30;;;4.73;;
5559;SDS011;2803;47.916;8.074;2022-09-14T09:03:52;11.53;;;4.20;;
5559;SDS011;2803;47.916;8.074;2022-09-14T09:06:32;10.17;;;3.77;;
5559;SDS011;2803;47.916;8.074;2022-09-14T09:09:06;12.50;;;5.27;;
5559;SDS011;2803;47.916;8.074;2022-09-14T09:11:38;8.33;;;3.70;;
5559;SDS011;2803;47.916;8.074;2022-09-14T09:14:09;14.77;;;4.30;;
5559;SDS011;2803;47.916;8.074;2022-09-14T09:16:44;7.23;;;4.20;;
5559;SDS011;2803;47.916;8.074;2022-09-14T09:19:17;8.07;;;4.07;;
5559;SDS011;2803;47.916;8.074;2022-09-14T09:21:48;9.10;;;3.83;;
5559;SDS011;2803;47.916;8.074;2022-09-14T09:24:19;13.97;;;3.30;;
5559;SDS011;2803;47.916;8.074;2022-09-14T09:26:51;9.13;;;3.03;;
5559;SDS011;2803;47.916;8.074;2022-09-14T09:29:17;10.43;;;3.17;;
5559;SDS011;2803;47.916;8.074;2022-09-14T09:31:44;9.70;;;3.23;;
5559;SDS011;2803;47.916;8.074;2022-09-14T09:34:14;13.23;;;3.80;;
5559;SDS011;2803;47.916;8.074;2022-09-14T09:36:46;15.97;;;4.90;;
5559;SDS011;2803;47.916;8.074;2022-09-14T09:39:14;17.50;;;4.63;;
5559;SDS011;2803;47.916;8.074;2022-09-14T09:41:42;12.70;;;4.13;;
5559;SDS011;2803;47.916;8.074;2022-09-14T09:44:11;8.67;;;3.80;;
5559;SDS011;2803;47.916;8.074;2022-09-14T09:46:39;17.30;;;4.53;;
5559;SDS011;2803;47.916;8.074;2022-09-14T09:49:15;9.80;;;4.70;;
5559;SDS011;2803;47.916;8.074;2022-09-14T09:51:47;13.50;;;3.97;;
5559;SDS011;2803;47.916;8.074;2022-09-14T09:54:20;14.27;;;4.37;;
5559;SDS011;2803;47.916;8.074;2022-09-14T09:56:52;15.17;;;3.63;;
5559;SDS011;2803;47.916;8.074;2022-09-14T09:59:25;12.23;;;3.90;;
5559;SDS011;2803;47.916;8.074;2022-09-14T10:01:54;10.83;;;3.30;;
5559;SDS011;2803;47.916;8.074;2022-09-14T10:04:23;7.63;;;3.50;;
5559;SDS011;2803;47.916;8.074;2022-09-14T10:06:55;11.40;;;3.77;;
5559;SDS011;2803;47.916;8.074;2022-09-14T10:09:23;9.80;;;3.50;;
5559;SDS011;2803;47.916;8.074;2022-09-14T10:11:55;11.47;;;4.00;;
5559;SDS011;2803;47.916;8.074;2022-09-14T10:14:25;8.60;;;3.23;;
5559;SDS011;2803;47.916;8.074;2022-09-14T10:17:02;8.43;;;3.07;;
5559;SDS011;2803;47.916;8.074;2022-09-14T10:19:32;10.63;;;3.27;;
5559;SDS011;2803;47.916;8.074;2022-09-14T10:22:00;9.00;;;3.30;;
5559;SDS011;2803;47.916;8.074;2022-09-14T10:24:29;7.43;;;3.23;;
5559;SDS011;2803;47.916;8.074;2022-09-14T10:26:57;10.33;;;4.13;;
5559;SDS011;2803;47.916;8.074;2022-09-14T10:29:27;8.23;;;3.00;;
5559;SDS011;2803;47.916;8.074;2022-09-14T10:32:02;10.53;;;2.67;;
5559;SDS011;2803;47.916;8.074;2022-09-14T10:34:41;11.63;;;3.20;;
5559;SDS011;2803;47.916;8.074;2022-09-14T10:37:12;7.67;;;2.80;;
5559;SDS011;2803;47.916;8.074;2022-09-14T10:39:46;10.30;;;3.27;;
5559;SDS011;2803;47.916;8.074;2022-09-14T10:42:24;6.93;;;2.67;;
5559;SDS011;2803;47.916;8.074;2022-09-14T10:45:03;17.93;;;2.47;;
5559;SDS011;2803;47.916;8.074;2022-09-14T10:47:51;3.53;;;2.23;;
5559;SDS011;2803;47.916;8.074;2022-09-14T10:50:31;5.17;;;1.83;;
5559;SDS011;2803;47.916;8.074;2022-09-14T10:53:08;6.90;;;2.30;;
5559;SDS011;2803;47.916;8.074;2022-09-14T10:55:45;4.10;;;2.10;;
5559;SDS011;2803;47.916;8.074;2022-09-14T10:58:21;3.23;;;1.67;;
5559;SDS011;2803;47.916;8.074;2022-09-14T11:00:58;3.57;;;1.60;;
5559;SDS011;2803;47.916;8.074;2022-09-14T11:03:37;7.10;;;2.10;;
5559;SDS011;2803;47.916;8.074;2022-09-14T11:06:22;12.13;;;2.87;;
5559;SDS011;2803;47.916;8.074;2022-09-14T11:09:00;9.40;;;2.00;;
5559;SDS011;2803;47.916;8.074;2022-09-14T11:11:35;4.63;;;2.07;;
5559;SDS011;2803;47.916;8.074;2022-09-14T11:14:13;11.60;;;2.80;;
5559;SDS011;2803;47.916;8.074;2022-09-14T11:16:52;4.07;;;2.03;;
5559;SDS011;2803;47.916;8.074;2022-09-14T11:19:32;9.67;;;3.73;;
5559;SDS011;2803;47.916;8.074;2022-09-14T11:22:07;5.53;;;3.37;;
5559;SDS011;2803;47.916;8.074;2022-09-14T11:24:40;4.80;;;2.43;;
5559;SDS011;2803;47.916;8.074;2022-09-14T11:27:12;5.17;;;2.27;;
5559;SDS011;2803;47.916;8.074;2022-09-14T11:29:48;5.33;;;2.23;;
5559;SDS011;2803;47.916;8.074;2022-09-14T11:32:19;9.80;;;2.77;;
5559;SDS011;2803;47.916;8.074;2022-09-14T11:34:49;7.20;;;2.50;;
5559;SDS011;2803;47.916;8.074;2022-09-14T11:37:24;4.83;;;1.90;;
5559;SDS011;2803;47.916;8.074;2022-09-14T11:39:58;4.40;;;2.20;;
5559;SDS011;2803;47.916;8.074;2022-09-14T11:42:31;8.40;;;2.50;;
5559;SDS011;2803;47.916;8.074;2022-09-14T11:45:04;9.27;;;2.47;;
5559;SDS011;2803;47.916;8.074;2022-09-14T11:47:44;8.03;;;2.20;;
5559;SDS011;2803;47.916;8.074;2022-09-14T11:50:16;4.70;;;2.03;;
5559;SDS011;2803;47.916;8.074;2022-09-14T11:52:46;11.90;;;2.37;;
5559;SDS011;2803;47.916;8.074;2022-09-14T11:55:20;6.60;;;2.33;;
5559;SDS011;2803;47.916;8.074;2022-09-14T11:57:47;6.87;;;2.20;;
5559;SDS011;2803;47.916;8.074;2022-09-14T12:03:13;7.47;;;3.17;;
5559;SDS011;2803;47.916;8.074;2022-09-14T12:05:42;10.00;;;2.70;;
5559;SDS011;2803;47.916;8.074;2022-09-14T12:11:02;10.80;;;2.93;;
5559;SDS011;2803;47.916;8.074;2022-09-14T12:13:47;6.70;;;2.63;;
5559;SDS011;2803;47.916;8.074;2022-09-14T12:16:14;7.80;;;3.10;;
5559;SDS011;2803;47.916;8.074;2022-09-14T12:18:41;8.07;;;3.40;;
5559;SDS011;2803;47.916;8.074;2022-09-14T12:21:20;5.27;;;3.30;;
5559;SDS011;2803;47.916;8.074;2022-09-14T12:23:51;6.60;;;2.67;;
5559;SDS011;2803;47.916;8.074;2022-09-14T12:26:25;6.83;;;2.93;;
5559;SDS011;2803;47.916;8.074;2022-09-14T12:28:56;8.13;;;3.30;;
5559;SDS011;2803;47.916;8.074;2022-09-14T12:31:29;13.93;;;3.90;;
5559;SDS011;2803;47.916;8.074;2022-09-14T12:39:28;6.30;;;2.97;;
5559;SDS011;2803;47.916;8.074;2022-09-14T12:41:58;11.97;;;3.57;;
5559;SDS011;2803;47.916;8.074;2022-09-14T12:44:31;13.50;;;3.00;;
5559;SDS011;2803;47.916;8.074;2022-09-14T12:49:56;16.13;;;3.37;;
5559;SDS011;2803;47.916;8.074;2022-09-14T12:52:27;7.47;;;3.00;;
5559;SDS011;2803;47.916;8.074;2022-09-14T12:55:05;7.40;;;2.80;;
5559;SDS011;2803;47.916;8.074;2022-09-14T12:57:45;11.40;;;3.00;;
5559;SDS011;2803;47.916;8.074;2022-09-14T13:00:18;4.20;;;2.43;;
5559;SDS011;2803;47.916;8.074;2022-09-14T13:02:51;4.20;;;1.83;;
5559;SDS011;2803;47.916;8.074;2022-09-14T13:05:32;4.10;;;1.80;;
5559;SDS011;2803;47.916;8.074;2022-09-14T13:08:00;5.07;;;2.40;;
5559;SDS011;2803;47.916;8.074;2022-09-14T13:10:36;5.23;;;2.40;;
5559;SDS011;2803;47.916;8.074;2022-09-14T13:13:12;8.97;;;2.50;;
5559;SDS011;2803;47.916;8.074;2022-09-14T13:15:44;17.50;;;2.27;;
5559;SDS011;2803;47.916;8.074;2022-09-14T13:18:23;3.97;;;2.10;;
5559;SDS011;2803;47.916;8.074;2022-09-14T13:20:54;11.13;;;2.30;;
5559;SDS011;2803;47.916;8.074;2022-09-14T13:23:23;7.17;;;2.30;;
5559;SDS011;2803;47.916;8.074;2022-09-14T13:25:54;6.50;;;2.43;;
5559;SDS011;2803;47.916;8.074;2022-09-14T13:28:21;7.93;;;2.20;;
5559;SDS011;2803;47.916;8.074;2022-09-14T13:30:52;11.57;;;2.20;;
5559;SDS011;2803;47.916;8.074;2022-09-14T13:33:20;4.27;;;1.73;;
5559;SDS011;2803;47.916;8.074;2022-09-14T13:35:48;7.60;;;2.07;;
5559;SDS011;2803;47.916;8.074;2022-09-14T13:38:17;6.73;;;2.10;;
5559;SDS011;2803;47.916;8.074;2022-09-14T13:40:47;2.97;;;1.93;;
5559;SDS011;2803;47.916;8.074;2022-09-14T13:43:17;8.17;;;2.73;;
5559;SDS011;2803;47.916;8.074;2022-09-14T13:45:45;8.93;;;2.40;;
5559;SDS011;2803;47.916;8.074;2022-09-14T13:48:13;7.77;;;2.00;;
5559;SDS011;2803;47.916;8.074;2022-09-14T13:50:41;8.80;;;2.10;;
5559;SDS011;2803;47.916;8.074;2022-09-14T13:56:13;5.87;;;2.13;;
5559;SDS011;2803;47.916;8.074;2022-09-14T13:58:42;6.33;;;1.70;;
5559;SDS011;2803;47.916;8.074;2022-09-14T14:01:09;3.87;;;1.37;;
5559;SDS011;2803;47.916;8.074;2022-09-14T14:03:37;2.97;;;1.27;;
5559;SDS011;2803;47.916;8.074;2022-09-14T14:08:52;4.90;;;1.57;;
5559;SDS011;2803;47.916;8.074;2022-09-14T14:11:25;5.20;;;1.57;;
5559;SDS011;2803;47.916;8.074;2022-09-14T14:13:55;3.10;;;1.40;;
5559;SDS011;2803;47.916;8.074;2022-09-14T14:16:22;2.33;;;1.33;;
5559;SDS011;2803;47.916;8.074;2022-09-14T14:18:51;7.60;;;1.23;;
5559;SDS011;2803;47.916;8.074;2022-09-14T14:21:24;3.27;;;1.60;;
5559;SDS011;2803;47.916;8.074;2022-09-14T14:24:15;2.10;;;1.27;;
5559;SDS011;2803;47.916;8.074;2022-09-14T14:26:47;3.90;;;1.40;;
5559;SDS011;2803;47.916;8.074;2022-09-14T14:29:15;6.13;;;1.30;;
5559;SDS011;2803;47.916;8.074;2022-09-14T14:31:43;1.97;;;1.30;;
5559;SDS011;2803;47.916;8.074;2022-09-14T14:34:11;3.03;;;1.80;;
5559;SDS011;2803;47.916;8.074;2022-09-14T14:36:43;6.93;;;1.73;;
5559;SDS011;2803;47.916;8.074;2022-09-14T14:39:11;5.20;;;1.70;;
5559;SDS011;2803;47.916;8.074;2022-09-14T14:41:38;10.17;;;1.83;;
5559;SDS011;2803;47.916;8.074;2022-09-14T14:44:07;2.90;;;1.50;;
5559;SDS011;2803;47.916;8.074;2022-09-14T14:46:37;4.60;;;1.50;;
5559;SDS011;2803;47.916;8.074;2022-09-14T14:49:06;5.80;;;1.77;;
5559;SDS011;2803;47.916;8.074;2022-09-14T14:51:35;4.73;;;1.70;;
5559;SDS011;2803;47.916;8.074;2022-09-14T14:54:02;6.13;;;1.83;;
5559;SDS011;2803;47.916;8.074;2022-09-14T14:56:29;5.07;;;1.47;;
5559;SDS011;2803;47.916;8.074;2022-09-14T14:58:56;4.83;;;1.87;;
5559;SDS011;2803;47.916;8.074;2022-09-14T15:01:24;3.20;;;1.50;;
5559;SDS011;2803;47.916;8.074;2022-09-14T15:03:50;3.30;;;1.50;;
5559;SDS011;2803;47.916;8.074;2022-09-14T15:06:18;2.17;;;1.67;;
5559;SDS011;2803;47.916;8.074;2022-09-14T15:08:47;4.03;;;1.67;;
5559;SDS011;2803;47.916;8.074;2022-09-14T15:11:17;3.57;;;1.73;;
5559;SDS011;2803;47.916;8.074;2022-09-14T15:13:44;8.20;;;1.50;;
5559;SDS011;2803;47.916;8.074;2022-09-14T15:16:11;3.60;;;1.60;;
5559;SDS011;2803;47.916;8.074;2022-09-14T15:18:40;2.90;;;1.60;;
5559;SDS011;2803;47.916;8.074;2022-09-14T15:21:06;4.53;;;1.80;;
5559;SDS011;2803;47.916;8.074;2022-09-14T15:23:34;5.57;;;2.10;;
5559;SDS011;2803;47.916;8.074;2022-09-14T15:26:01;10.43;;;2.50;;
5559;SDS011;2803;47.916;8.074;2022-09-14T15:28:28;4.20;;;1.80;;
5559;SDS011;2803;47.916;8.074;2022-09-14T15:30:55;1.93;;;1.57;;
5559;SDS011;2803;47.916;8.074;2022-09-14T15:33:22;4.40;;;1.60;;
5559;SDS011;2803;47.916;8.074;2022-09-14T15:35:54;3.90;;;1.40;;
5559;SDS011;2803;47.916;8.074;2022-09-14T15:38:21;7.40;;;1.60;;
5559;SDS011;2803;47.916;8.074;2022-09-14T15:40:48;4.83;;;1.40;;
5559;SDS011;2803;47.916;8.074;2022-09-14T15:43:14;2.40;;;1.40;;
5559;SDS011;2803;47.916;8.074;2022-09-14T15:45:41;9.30;;;2.40;;
5559;SDS011;2803;47.916;8.074;2022-09-14T15:48:10;8.03;;;1.27;;